createdAt,value
2019-03-15T00:01:48.734Z,6.80
2019-03-15T00:04:16.996Z,6.80
2019-03-15T00:06:45.286Z,6.80
2019-03-15T00:09:13.561Z,6.80
2019-03-15T00:11:41.845Z,6.70
2019-03-15T00:14:10.118Z,6.80
2019-03-15T00:16:38.396Z,6.80
2019-03-15T00:19:06.674Z,6.70
2019-03-15T00:21:35.041Z,6.80
2019-03-15T00:24:03.367Z,6.80
2019-03-15T00:26:31.696Z,6.70
2019-03-15T00:29:01.157Z,6.70
2019-03-15T00:31:29.414Z,6.70
2019-03-15T00:33:57.683Z,6.70
2019-03-15T00:36:29.306Z,6.70
2019-03-15T00:39:00.117Z,6.70
2019-03-15T00:41:28.431Z,6.70
2019-03-15T00:43:57.142Z,6.70
2019-03-15T00:46:25.602Z,6.70
2019-03-15T00:48:58.662Z,6.60
2019-03-15T00:51:26.936Z,6.60
2019-03-15T00:53:55.237Z,6.60
2019-03-15T00:56:23.588Z,6.60
2019-03-15T00:58:51.858Z,6.60
2019-03-15T01:01:20.503Z,6.50
2019-03-15T01:03:48.957Z,6.50
2019-03-15T01:06:17.240Z,6.50
2019-03-15T01:08:45.517Z,6.50
2019-03-15T01:11:13.926Z,6.50
2019-03-15T01:13:43.889Z,6.50
2019-03-15T01:16:12.166Z,6.40
2019-03-15T01:18:40.435Z,6.50
2019-03-15T01:21:08.711Z,6.50
2019-03-15T01:23:36.993Z,6.50
2019-03-15T01:26:05.282Z,6.50
2019-03-15T01:28:33.818Z,6.50
2019-03-15T01:31:02.235Z,6.50
2019-03-15T01:33:30.506Z,6.50
2019-03-15T01:35:58.894Z,6.50
2019-03-15T01:38:27.165Z,6.50
2019-03-15T01:40:55.516Z,6.60
2019-03-15T01:43:23.788Z,6.60
2019-03-15T01:45:52.125Z,6.50
2019-03-15T01:48:20.492Z,6.50
2019-03-15T01:50:48.888Z,6.50
2019-03-15T01:53:17.298Z,6.50
2019-03-15T01:55:45.559Z,6.50
2019-03-15T01:58:13.855Z,6.50
2019-03-15T02:00:42.170Z,6.50
2019-03-15T02:03:10.459Z,6.40
2019-03-15T02:05:38.715Z,6.40
2019-03-15T02:08:06.993Z,6.50
2019-03-15T02:10:35.251Z,6.50
2019-03-15T02:13:03.514Z,6.50
2019-03-15T02:15:31.787Z,6.50
2019-03-15T02:18:00.136Z,6.50
2019-03-15T02:20:28.389Z,6.50
2019-03-15T02:22:56.664Z,6.50
2019-03-15T02:25:24.931Z,6.50
2019-03-15T02:27:53.206Z,6.60
2019-03-15T02:30:21.544Z,6.60
2019-03-15T02:32:49.811Z,6.60
2019-03-15T02:35:18.194Z,6.60
2019-03-15T02:37:46.554Z,6.60
2019-03-15T02:40:15.124Z,6.60
2019-03-15T02:42:43.624Z,6.60
2019-03-15T02:45:11.930Z,6.60
2019-03-15T02:47:40.220Z,6.60
2019-03-15T02:50:08.853Z,6.50
2019-03-15T02:52:37.239Z,6.50
2019-03-15T02:55:06.715Z,6.50
2019-03-15T02:57:35.717Z,6.50
2019-03-15T03:00:06.261Z,6.40
2019-03-15T03:02:34.653Z,6.50
2019-03-15T03:05:03.953Z,6.50
2019-03-15T03:07:32.224Z,6.50
2019-03-15T03:10:01.932Z,6.50
2019-03-15T03:12:30.751Z,6.50
2019-03-15T03:14:59.169Z,6.50
2019-03-15T03:17:27.614Z,6.50
2019-03-15T03:19:55.947Z,6.50
2019-03-15T03:22:24.224Z,6.50
2019-03-15T03:24:52.607Z,6.50
2019-03-15T03:27:20.968Z,6.60
2019-03-15T03:29:49.279Z,6.60
2019-03-15T03:32:17.565Z,6.60
2019-03-15T03:34:45.947Z,6.60
2019-03-15T03:37:14.272Z,6.60
2019-03-15T03:39:42.603Z,6.60
2019-03-15T03:42:10.998Z,6.60
2019-03-15T03:44:39.347Z,6.60
2019-03-15T03:47:07.636Z,6.60
2019-03-15T03:49:35.928Z,6.70
2019-03-15T03:52:04.194Z,6.70
2019-03-15T03:54:32.483Z,6.70
2019-03-15T03:57:00.745Z,6.60
2019-03-15T03:59:29.011Z,6.70
2019-03-15T04:01:57.295Z,6.60
2019-03-15T04:04:25.714Z,6.60
2019-03-15T04:06:53.971Z,6.60
2019-03-15T04:09:22.221Z,6.70
2019-03-15T04:11:55.710Z,6.60
2019-03-15T04:14:20.481Z,6.70
2019-03-15T04:16:48.831Z,6.70
2019-03-15T04:19:17.102Z,6.60
2019-03-15T04:21:45.386Z,6.60
2019-03-15T04:24:13.724Z,6.70
2019-03-15T04:26:42.179Z,6.60
2019-03-15T04:29:10.453Z,6.70
2019-03-15T04:31:38.725Z,6.70
2019-03-15T04:34:06.989Z,6.70
2019-03-15T04:36:35.328Z,6.70
2019-03-15T04:39:04.951Z,6.70
2019-03-15T04:41:33.237Z,6.70
2019-03-15T04:44:01.556Z,6.70
2019-03-15T04:46:29.826Z,6.70
2019-03-15T04:48:58.102Z,6.70
2019-03-15T04:51:26.473Z,6.60
2019-03-15T04:53:54.770Z,6.60
2019-03-15T04:56:23.086Z,6.50
2019-03-15T04:58:51.359Z,6.50
2019-03-15T05:01:19.641Z,6.50
2019-03-15T05:03:47.955Z,6.40
2019-03-15T05:06:16.223Z,6.40
2019-03-15T05:08:44.510Z,6.40
2019-03-15T05:11:12.780Z,6.40
2019-03-15T05:13:41.035Z,6.40
2019-03-15T05:16:09.330Z,6.40
2019-03-15T05:18:37.588Z,6.40
2019-03-15T05:21:05.970Z,6.40
2019-03-15T05:23:34.332Z,6.30
2019-03-15T05:26:02.717Z,6.40
2019-03-15T05:28:31.043Z,6.30
2019-03-15T05:30:59.310Z,6.30
2019-03-15T05:33:27.572Z,6.40
2019-03-15T05:35:55.856Z,6.40
2019-03-15T05:38:24.183Z,6.40
2019-03-15T05:40:53.124Z,6.40
2019-03-15T05:43:21.372Z,6.30
2019-03-15T05:45:49.687Z,6.20
2019-03-15T05:48:18.011Z,6.20
2019-03-15T05:50:46.296Z,6.30
2019-03-15T05:53:14.553Z,6.40
2019-03-15T05:55:42.831Z,6.40
2019-03-15T05:58:11.106Z,6.50
2019-03-15T06:00:39.372Z,6.60
2019-03-15T06:03:07.630Z,6.60
2019-03-15T06:05:35.965Z,6.70
2019-03-15T06:08:04.256Z,6.90
2019-03-15T06:10:32.536Z,7.00
2019-03-15T06:13:00.866Z,7.20
2019-03-15T06:15:29.134Z,7.30
2019-03-15T06:17:57.411Z,7.30
2019-03-15T06:20:25.719Z,7.30
2019-03-15T06:22:54.003Z,7.40
2019-03-15T06:25:22.446Z,7.50
2019-03-15T06:27:50.816Z,7.60
2019-03-15T06:30:19.097Z,7.80
2019-03-15T06:32:47.390Z,7.90
2019-03-15T06:35:15.670Z,7.80
2019-03-15T06:37:44.094Z,7.80
2019-03-15T06:40:13.845Z,7.80
2019-03-15T06:42:42.443Z,7.80
2019-03-15T06:45:12.465Z,7.80
2019-03-15T06:47:40.809Z,7.70
2019-03-15T06:50:09.121Z,7.80
2019-03-15T06:52:37.421Z,7.70
2019-03-15T06:55:07.704Z,7.70
2019-03-15T06:57:36.132Z,7.80
2019-03-15T07:00:07.379Z,7.70
2019-03-15T07:02:35.712Z,7.60
2019-03-15T07:05:05.198Z,7.70
2019-03-15T07:07:33.544Z,7.70
2019-03-15T07:10:01.864Z,7.70
2019-03-15T07:12:30.194Z,7.70
2019-03-15T07:14:58.497Z,7.70
2019-03-15T07:17:26.838Z,7.70
2019-03-15T07:19:55.176Z,7.70
2019-03-15T07:22:24.436Z,7.70
2019-03-15T07:24:52.700Z,7.70
2019-03-15T07:27:21.948Z,7.80
2019-03-15T07:29:50.321Z,7.90
2019-03-15T07:32:18.612Z,8.10
2019-03-15T07:34:46.973Z,8.40
2019-03-15T07:37:15.249Z,8.70
2019-03-15T07:39:43.598Z,9.10
2019-03-15T07:42:11.856Z,9.10
2019-03-15T07:44:40.122Z,9.10
2019-03-15T07:47:08.447Z,9.00
2019-03-15T07:49:36.722Z,9.00
2019-03-15T07:52:04.998Z,9.10
2019-03-15T07:54:37.876Z,9.10
2019-03-15T07:57:03.248Z,9.10
2019-03-15T07:59:31.519Z,9.10
2019-03-15T08:01:59.794Z,9.00
2019-03-15T08:04:29.247Z,8.80
2019-03-15T08:06:57.697Z,8.80
2019-03-15T08:09:26.033Z,8.60
2019-03-15T08:11:54.283Z,8.40
2019-03-15T08:14:22.554Z,8.30
2019-03-15T08:16:50.834Z,8.20
2019-03-15T08:19:19.201Z,8.20
2019-03-15T08:21:47.564Z,8.20
2019-03-15T08:24:15.812Z,8.30
2019-03-15T08:26:44.094Z,8.20
2019-03-15T08:29:12.362Z,8.20
2019-03-15T08:31:40.668Z,8.30
2019-03-15T08:34:14.070Z,8.40
2019-03-15T08:36:42.324Z,8.30
2019-03-15T08:39:10.645Z,8.30
2019-03-15T08:41:39.109Z,8.20
2019-03-15T08:44:07.453Z,8.30
2019-03-15T08:46:35.786Z,8.40
2019-03-15T08:49:04.054Z,8.40
2019-03-15T08:51:32.327Z,8.50
2019-03-15T08:54:00.595Z,8.70
2019-03-15T08:56:28.864Z,8.80
2019-03-15T08:58:57.188Z,9.00
2019-03-15T09:01:25.486Z,9.30
2019-03-15T09:03:53.813Z,9.40
2019-03-15T09:06:22.084Z,9.60
2019-03-15T09:08:50.385Z,9.60
2019-03-15T09:11:18.671Z,9.60
2019-03-15T09:13:49.139Z,9.80
2019-03-15T09:16:16.926Z,10.00
2019-03-15T09:18:45.185Z,10.20
2019-03-15T09:21:13.485Z,10.20
2019-03-15T09:23:41.764Z,10.00
2019-03-15T09:26:10.561Z,10.00
2019-03-15T09:28:39.071Z,9.90
2019-03-15T09:31:07.701Z,9.80
2019-03-15T09:33:36.222Z,9.90
2019-03-15T09:36:04.588Z,10.20
2019-03-15T09:38:32.906Z,10.30
2019-03-15T09:41:01.228Z,10.20
2019-03-15T09:43:29.556Z,10.40
2019-03-15T09:45:57.892Z,10.70
2019-03-15T09:48:26.158Z,10.90
2019-03-15T09:50:54.419Z,11.50
2019-03-15T09:53:22.695Z,12.20
2019-03-15T09:55:50.966Z,12.20
2019-03-15T09:58:19.245Z,12.10
2019-03-15T10:00:47.602Z,11.80
2019-03-15T10:03:22.054Z,11.60
2019-03-15T10:05:45.863Z,11.30
2019-03-15T10:08:14.172Z,11.00
2019-03-15T10:10:42.459Z,10.80
2019-03-15T10:13:10.734Z,11.00
2019-03-15T10:15:39.052Z,11.00
2019-03-15T10:18:07.570Z,11.00
2019-03-15T10:20:35.843Z,11.40
2019-03-15T10:23:06.251Z,11.60
2019-03-15T10:25:46.097Z,12.10
2019-03-15T10:28:05.885Z,12.20
2019-03-15T10:30:34.163Z,12.00
2019-03-15T10:33:02.541Z,11.90
2019-03-15T10:35:31.052Z,11.80
2019-03-15T10:37:59.340Z,11.70
2019-03-15T10:40:27.607Z,11.50
2019-03-15T10:42:55.993Z,11.30
2019-03-15T10:45:24.335Z,11.10
2019-03-15T10:47:52.812Z,11.20
2019-03-15T10:50:21.117Z,11.30
2019-03-15T10:52:49.390Z,11.10
2019-03-15T10:55:20.496Z,11.10
2019-03-15T10:57:47.695Z,11.00
2019-03-15T11:00:17.751Z,10.70
2019-03-15T11:02:46.026Z,10.30
2019-03-15T11:05:14.309Z,10.10
2019-03-15T11:07:42.589Z,10.00
2019-03-15T11:10:11.700Z,9.90
2019-03-15T11:12:40.086Z,9.80
2019-03-15T11:15:15.107Z,9.60
2019-03-15T11:17:43.487Z,9.50
2019-03-15T11:20:12.420Z,9.50
2019-03-15T11:22:40.691Z,9.30
2019-03-15T11:25:10.006Z,9.20
2019-03-15T11:27:38.300Z,9.10
2019-03-15T11:30:09.283Z,9.10
2019-03-15T11:32:37.617Z,9.00
2019-03-15T11:35:07.743Z,8.90
2019-03-15T11:37:35.991Z,8.70
2019-03-15T11:40:07.551Z,8.70
2019-03-15T11:42:35.816Z,8.60
2019-03-15T11:45:04.703Z,8.50
2019-03-15T11:47:46.341Z,8.40
2019-03-15T11:50:03.714Z,8.40
2019-03-15T11:52:31.974Z,8.30
2019-03-15T11:55:00.465Z,8.20
2019-03-15T11:57:28.887Z,8.10
2019-03-15T11:59:57.255Z,8.00
2019-03-15T12:02:25.615Z,8.00
2019-03-15T12:04:53.870Z,8.00
2019-03-15T12:07:22.177Z,8.00
2019-03-15T12:09:50.521Z,8.00
2019-03-15T12:12:21.530Z,7.90
2019-03-15T12:14:48.799Z,8.00
2019-03-15T12:17:17.081Z,8.00
2019-03-15T12:19:45.417Z,8.10
2019-03-15T12:22:13.702Z,8.00
2019-03-15T12:24:41.986Z,8.00
2019-03-15T12:27:10.285Z,8.10
2019-03-15T12:29:38.658Z,8.00
2019-03-15T12:32:07.079Z,8.00
2019-03-15T12:34:35.359Z,8.00
2019-03-15T12:37:03.667Z,8.00
2019-03-15T12:39:31.942Z,8.10
2019-03-15T12:42:00.253Z,8.00
2019-03-15T12:44:28.539Z,8.00
2019-03-15T12:46:56.851Z,7.90
2019-03-15T12:49:25.747Z,8.00
2019-03-15T12:51:54.308Z,8.00
2019-03-15T12:54:22.670Z,8.00
2019-03-15T12:56:53.955Z,8.10
2019-03-15T12:59:21.062Z,8.10
2019-03-15T13:01:49.339Z,8.10
2019-03-15T13:04:17.615Z,8.10
2019-03-15T13:06:46.710Z,8.10
2019-03-15T13:09:14.985Z,8.10
2019-03-15T13:11:43.261Z,8.20
2019-03-15T13:14:11.535Z,8.30
2019-03-15T13:16:39.798Z,8.30
2019-03-15T13:19:08.101Z,8.40
2019-03-15T13:21:36.429Z,8.50
2019-03-15T13:24:04.760Z,8.50
2019-03-15T13:26:33.078Z,8.50
2019-03-15T13:29:01.597Z,8.50
2019-03-15T13:31:29.885Z,8.60
2019-03-15T13:33:58.210Z,8.70
2019-03-15T13:36:26.554Z,8.60
2019-03-15T13:38:54.839Z,8.70
2019-03-15T13:41:23.134Z,8.70
2019-03-15T13:43:54.671Z,8.70
2019-03-15T13:46:23.049Z,8.70
2019-03-15T13:48:51.371Z,8.70
2019-03-15T13:51:22.517Z,8.70
2019-03-15T13:53:50.834Z,8.90
2019-03-15T13:56:19.468Z,9.00
2019-03-15T13:58:57.233Z,9.10
2019-03-15T14:01:17.956Z,9.30
2019-03-15T14:03:46.219Z,9.50
2019-03-15T14:06:14.711Z,9.80
2019-03-15T14:08:43.034Z,10.00
2019-03-15T14:11:11.334Z,10.10
2019-03-15T14:13:39.599Z,10.20
2019-03-15T14:16:07.881Z,10.10
2019-03-15T14:18:36.190Z,10.00
2019-03-15T14:21:04.454Z,9.90
2019-03-15T14:23:32.774Z,10.00
2019-03-15T14:26:01.143Z,10.00
2019-03-15T14:28:29.424Z,10.10
2019-03-15T14:30:57.861Z,10.20
2019-03-15T14:33:26.368Z,10.20
2019-03-15T14:35:54.955Z,10.20
2019-03-15T14:38:23.411Z,10.10
2019-03-15T14:40:51.853Z,10.20
2019-03-15T14:43:20.470Z,10.20
2019-03-15T14:45:48.928Z,10.20
2019-03-15T14:48:17.405Z,10.30
2019-03-15T14:50:45.687Z,10.30
2019-03-15T14:53:14.023Z,10.30
2019-03-15T14:55:42.431Z,10.30
2019-03-15T14:58:10.714Z,10.20
2019-03-15T15:00:39.022Z,10.20
2019-03-15T15:03:07.342Z,10.30
2019-03-15T15:05:35.879Z,10.30
2019-03-15T15:08:04.165Z,10.30
2019-03-15T15:10:32.440Z,10.30
2019-03-15T15:13:00.802Z,10.40
2019-03-15T15:15:29.091Z,10.60
2019-03-15T15:17:57.416Z,10.70
2019-03-15T15:20:25.762Z,10.70
2019-03-15T15:22:54.220Z,10.60
2019-03-15T15:25:22.507Z,10.50
2019-03-15T15:31:32.277Z,10.20
2019-03-15T15:36:30.088Z,10.00
2019-03-15T15:38:58.369Z,10.00
2019-03-15T15:41:26.647Z,10.00
2019-03-15T15:43:55.097Z,9.90
2019-03-15T15:46:23.463Z,9.90
2019-03-15T15:48:51.988Z,9.80
2019-03-15T15:51:20.606Z,9.80
2019-03-15T15:53:49.006Z,9.90
2019-03-15T15:56:17.353Z,9.90
2019-03-15T15:58:45.615Z,9.80
2019-03-15T16:01:13.903Z,9.70
2019-03-15T16:03:42.306Z,9.60
2019-03-15T16:06:10.798Z,9.60
2019-03-15T16:08:39.137Z,9.60
2019-03-15T16:11:07.413Z,9.70
2019-03-15T16:13:35.831Z,9.60
2019-03-15T16:16:04.349Z,9.60
2019-03-15T16:18:32.728Z,9.50
2019-03-15T16:21:01.106Z,9.50
2019-03-15T16:23:30.482Z,9.50
2019-03-15T16:25:59.456Z,9.50
2019-03-15T16:28:32.344Z,9.50
2019-03-15T16:30:58.105Z,9.40
2019-03-15T16:33:26.440Z,9.30
2019-03-15T16:35:54.747Z,9.30
2019-03-15T16:38:23.362Z,9.30
2019-03-15T16:40:52.354Z,9.20
2019-03-15T16:43:20.799Z,9.20
2019-03-15T16:45:49.264Z,9.10
2019-03-15T16:48:17.776Z,9.10
2019-03-15T16:50:46.084Z,9.00
2019-03-15T16:53:18.514Z,9.00
2019-03-15T16:55:47.094Z,9.00
2019-03-15T16:58:15.460Z,8.90
2019-03-15T17:00:43.853Z,8.90
2019-03-15T17:03:12.262Z,8.90
2019-03-15T17:05:40.757Z,8.80
2019-03-15T17:08:09.198Z,8.70
2019-03-15T17:10:37.539Z,8.70
2019-03-15T17:13:06.279Z,8.70
2019-03-15T17:15:34.840Z,8.60
2019-03-15T17:18:03.382Z,8.60
2019-03-15T17:20:32.285Z,8.50
2019-03-15T17:23:00.822Z,8.50
2019-03-15T17:25:29.498Z,8.40
2019-03-15T17:27:57.789Z,8.40
2019-03-15T17:30:26.204Z,8.30
2019-03-15T17:32:54.643Z,8.40
2019-03-15T17:35:24.932Z,8.40
2019-03-15T17:37:53.315Z,8.30
2019-03-15T17:40:21.844Z,8.20
2019-03-15T17:42:50.189Z,8.20
2019-03-15T17:45:19.409Z,8.10
2019-03-15T17:47:47.758Z,8.20
2019-03-15T17:50:17.987Z,8.20
2019-03-15T17:52:46.322Z,8.20
2019-03-15T17:55:15.624Z,8.10
2019-03-15T17:57:45.607Z,8.00
2019-03-15T18:00:24.459Z,7.90
2019-03-15T18:02:52.719Z,7.80
2019-03-15T18:05:21.088Z,7.80
2019-03-15T18:07:49.523Z,7.80
2019-03-15T18:10:17.814Z,7.80
2019-03-15T18:12:46.077Z,7.80
2019-03-15T18:15:14.375Z,7.90
2019-03-15T18:17:42.792Z,8.00
2019-03-15T18:20:11.378Z,7.90
2019-03-15T18:22:39.785Z,7.90
2019-03-15T18:25:11.544Z,7.90
2019-03-15T18:27:39.843Z,8.00
2019-03-15T18:30:11.123Z,8.00
2019-03-15T18:32:39.515Z,8.00
2019-03-15T18:35:09.288Z,8.10
2019-03-15T18:37:37.671Z,8.30
2019-03-15T18:40:17.532Z,8.20
2019-03-15T18:42:46.001Z,8.20
2019-03-15T18:51:45.233Z,8.00
2019-03-15T18:54:17.714Z,7.90
2019-03-15T18:56:44.380Z,8.00
2019-03-15T18:59:12.817Z,8.00
2019-03-15T19:01:41.790Z,7.90
2019-03-15T19:04:10.462Z,7.90
2019-03-15T19:06:38.819Z,7.90
2019-03-15T19:09:07.990Z,7.90
2019-03-15T19:11:36.606Z,7.90
2019-03-15T19:14:05.230Z,8.00
2019-03-15T19:16:33.829Z,8.00
2019-03-15T19:19:02.623Z,8.00
2019-03-15T19:21:33.510Z,8.00
2019-03-15T19:24:02.002Z,7.90
2019-03-15T19:26:30.375Z,8.00
2019-03-15T19:28:58.823Z,8.00
2019-03-15T19:31:30.335Z,7.90
2019-03-15T19:34:00.790Z,7.90
2019-03-15T19:36:29.087Z,7.90
2019-03-15T19:38:57.451Z,8.00
2019-03-15T19:41:26.792Z,7.90
2019-03-15T19:44:01.804Z,7.90
2019-03-15T19:46:30.918Z,7.90
2019-03-15T19:48:59.582Z,7.80
2019-03-15T19:51:27.932Z,7.80
2019-03-15T19:54:03.996Z,7.80
2019-03-15T19:56:31.670Z,7.80
2019-03-15T19:59:01.648Z,7.90
2019-03-15T20:01:30.351Z,7.80
2019-03-15T20:03:59.209Z,7.80
2019-03-15T20:06:27.705Z,7.90
2019-03-15T20:08:56.112Z,7.90
2019-03-15T20:11:24.446Z,7.90
2019-03-15T20:13:53.442Z,7.80
2019-03-15T20:16:21.887Z,7.80
2019-03-15T20:18:50.292Z,7.80
2019-03-15T20:21:18.699Z,7.80
2019-03-15T20:23:47.200Z,7.80
2019-03-15T20:26:15.558Z,7.70
2019-03-15T20:28:43.919Z,7.70
2019-03-15T20:31:12.695Z,7.70
2019-03-15T20:33:41.462Z,7.70
2019-03-15T20:36:12.497Z,7.60
2019-03-15T20:38:40.922Z,7.40
2019-03-15T20:41:09.379Z,7.30
2019-03-15T20:43:37.987Z,7.20
2019-03-15T20:46:06.365Z,7.20
2019-03-15T20:48:34.742Z,7.20
2019-03-15T20:51:03.231Z,7.10
2019-03-15T20:53:31.551Z,7.00
2019-03-15T20:55:59.907Z,6.90
2019-03-15T20:58:28.278Z,6.80
2019-03-15T21:00:59.842Z,6.80
2019-03-15T21:03:28.264Z,6.90
2019-03-15T21:05:56.899Z,7.00
2019-03-15T21:08:25.526Z,7.10
2019-03-15T21:11:05.877Z,7.10
2019-03-15T21:13:34.383Z,7.20
2019-03-15T21:16:03.662Z,7.30
2019-03-15T21:18:32.278Z,7.30
2019-03-15T21:21:00.629Z,7.40
2019-03-15T21:23:29.035Z,7.40
2019-03-15T21:25:57.435Z,7.40
2019-03-15T21:28:25.780Z,7.40
2019-03-15T21:30:54.368Z,7.40
2019-03-15T21:33:22.824Z,7.40
2019-03-15T21:35:54.309Z,7.50
2019-03-15T21:38:22.608Z,7.40
2019-03-15T21:40:50.965Z,7.40
2019-03-15T21:43:19.301Z,7.40
2019-03-15T21:45:48.000Z,7.40
2019-03-15T21:48:16.427Z,7.30
2019-03-15T21:50:44.778Z,7.30
2019-03-15T21:53:13.038Z,7.30
2019-03-15T21:55:41.311Z,7.20
2019-03-15T21:58:09.666Z,7.20
2019-03-15T22:00:38.283Z,7.30
2019-03-15T22:03:06.692Z,7.30
2019-03-15T22:05:35.089Z,7.20
2019-03-15T22:08:03.471Z,7.20
2019-03-15T22:10:32.100Z,7.20
2019-03-15T22:13:00.454Z,7.30
2019-03-15T22:15:28.953Z,7.30
2019-03-15T22:18:03.246Z,7.30
2019-03-15T22:20:31.806Z,7.20
2019-03-15T22:23:00.126Z,7.20
2019-03-15T22:25:28.518Z,7.20
2019-03-15T22:27:56.837Z,7.20
2019-03-15T22:30:26.287Z,7.30
2019-03-15T22:32:54.731Z,7.30
2019-03-15T22:35:22.989Z,7.30
2019-03-15T22:37:51.337Z,7.30
2019-03-15T22:40:19.663Z,7.30
2019-03-15T22:42:48.027Z,7.30
2019-03-15T22:45:16.487Z,7.30
2019-03-15T22:47:44.852Z,7.30
2019-03-15T22:50:14.514Z,7.20
2019-03-15T22:52:43.071Z,7.20
2019-03-15T22:55:11.415Z,7.20
2019-03-15T22:57:39.752Z,7.20
2019-03-15T23:00:18.125Z,7.20
2019-03-15T23:02:46.496Z,7.10
2019-03-15T23:05:14.894Z,7.10
2019-03-15T23:07:43.458Z,7.00
2019-03-15T23:10:17.873Z,7.00
2019-03-15T23:12:46.247Z,7.00
2019-03-15T23:15:14.726Z,7.00
2019-03-15T23:17:43.052Z,7.10
2019-03-15T23:20:12.531Z,7.00
2019-03-15T23:22:41.148Z,7.00
2019-03-15T23:25:09.499Z,7.00
2019-03-15T23:27:37.851Z,7.00
2019-03-15T23:30:15.831Z,6.90
2019-03-15T23:32:44.180Z,7.00
2019-03-15T23:35:12.448Z,7.10
2019-03-15T23:37:40.723Z,7.00
2019-03-15T23:40:13.472Z,7.00
2019-03-15T23:42:42.256Z,7.10
2019-03-15T23:45:11.018Z,7.00
2019-03-15T23:47:39.431Z,6.90
2019-03-15T23:50:10.369Z,6.90
2019-03-15T23:52:38.650Z,6.90
2019-03-15T23:55:06.936Z,6.90
2019-03-15T23:57:35.219Z,7.00
